sensor_id;sensor_type;location;lat;lon;timestamp;P1;durP1;ratioP1;P2;durP2;ratioP2
77220;SDS011;66217;50.004;8.266;2023-05-02T00:01:28;4.80;;;3.65;;
77220;SDS011;66217;50.004;8.266;2023-05-02T00:03:53;6.50;;;3.50;;
77220;SDS011;66217;50.004;8.266;2023-05-02T00:06:19;5.50;;;3.53;;
77220;SDS011;66217;50.004;8.266;2023-05-02T00:08:44;5.47;;;3.35;;
77220;SDS011;66217;50.004;8.266;2023-05-02T00:11:10;5.07;;;3.47;;
77220;SDS011;66217;50.004;8.266;2023-05-02T00:13:35;5.55;;;3.40;;
77220;SDS011;66217;50.004;8.266;2023-05-02T00:16:01;6.22;;;3.40;;
77220;SDS011;66217;50.004;8.266;2023-05-02T00:18:27;5.28;;;4.22;;
77220;SDS011;66217;50.004;8.266;2023-05-02T00:20:54;9.23;;;4.40;;
77220;SDS011;66217;50.004;8.266;2023-05-02T00:23:19;6.80;;;4.30;;
77220;SDS011;66217;50.004;8.266;2023-05-02T00:25:45;5.00;;;3.70;;
77220;SDS011;66217;50.004;8.266;2023-05-02T00:28:10;5.55;;;3.97;;
77220;SDS011;66217;50.004;8.266;2023-05-02T00:30:44;5.30;;;3.75;;
77220;SDS011;66217;50.004;8.266;2023-05-02T00:33:10;5.53;;;3.78;;
77220;SDS011;66217;50.004;8.266;2023-05-02T00:35:37;7.88;;;4.22;;
77220;SDS011;66217;50.004;8.266;2023-05-02T00:38:03;6.82;;;4.43;;
77220;SDS011;66217;50.004;8.266;2023-05-02T00:40:28;10.55;;;4.78;;
77220;SDS011;66217;50.004;8.266;2023-05-02T00:42:53;9.45;;;4.57;;
77220;SDS011;66217;50.004;8.266;2023-05-02T00:45:19;6.75;;;4.72;;
77220;SDS011;66217;50.004;8.266;2023-05-02T00:47:44;6.82;;;4.13;;
77220;SDS011;66217;50.004;8.266;2023-05-02T00:50:10;7.38;;;4.70;;
77220;SDS011;66217;50.004;8.266;2023-05-02T00:52:36;11.60;;;5.18;;
77220;SDS011;66217;50.004;8.266;2023-05-02T00:55:01;7.97;;;4.85;;
77220;SDS011;66217;50.004;8.266;2023-05-02T00:57:28;9.50;;;5.10;;
77220;SDS011;66217;50.004;8.266;2023-05-02T00:59:53;10.18;;;5.72;;
77220;SDS011;66217;50.004;8.266;2023-05-02T01:02:37;8.57;;;5.63;;
77220;SDS011;66217;50.004;8.266;2023-05-02T01:05:19;8.50;;;5.75;;
77220;SDS011;66217;50.004;8.266;2023-05-02T01:10:40;7.88;;;6.13;;
77220;SDS011;66217;50.004;8.266;2023-05-02T01:13:19;11.82;;;6.88;;
77220;SDS011;66217;50.004;8.266;2023-05-02T01:15:47;8.27;;;5.75;;
77220;SDS011;66217;50.004;8.266;2023-05-02T01:18:15;9.77;;;6.43;;
77220;SDS011;66217;50.004;8.266;2023-05-02T01:20:43;8.63;;;6.50;;
77220;SDS011;66217;50.004;8.266;2023-05-02T01:23:11;10.43;;;6.22;;
77220;SDS011;66217;50.004;8.266;2023-05-02T01:31:33;11.05;;;7.30;;
77220;SDS011;66217;50.004;8.266;2023-05-02T01:34:01;11.10;;;7.30;;
77220;SDS011;66217;50.004;8.266;2023-05-02T01:36:28;13.07;;;9.45;;
77220;SDS011;66217;50.004;8.266;2023-05-02T01:38:55;15.45;;;8.77;;
77220;SDS011;66217;50.004;8.266;2023-05-02T01:41:21;15.68;;;9.27;;
77220;SDS011;66217;50.004;8.266;2023-05-02T01:43:50;14.77;;;9.82;;
77220;SDS011;66217;50.004;8.266;2023-05-02T01:46:16;15.73;;;10.20;;
77220;SDS011;66217;50.004;8.266;2023-05-02T01:48:43;14.55;;;9.60;;
77220;SDS011;66217;50.004;8.266;2023-05-02T01:51:10;15.25;;;10.25;;
77220;SDS011;66217;50.004;8.266;2023-05-02T01:53:35;13.00;;;9.55;;
77220;SDS011;66217;50.004;8.266;2023-05-02T01:56:03;20.85;;;12.77;;
77220;SDS011;66217;50.004;8.266;2023-05-02T01:58:29;18.13;;;11.52;;
77220;SDS011;66217;50.004;8.266;2023-05-02T02:00:55;17.20;;;11.27;;
77220;SDS011;66217;50.004;8.266;2023-05-02T02:03:22;15.93;;;10.93;;
77220;SDS011;66217;50.004;8.266;2023-05-02T02:05:51;18.42;;;11.55;;
77220;SDS011;66217;50.004;8.266;2023-05-02T02:08:18;20.38;;;11.45;;
77220;SDS011;66217;50.004;8.266;2023-05-02T02:10:44;16.80;;;11.50;;
77220;SDS011;66217;50.004;8.266;2023-05-02T02:13:18;17.33;;;12.13;;
77220;SDS011;66217;50.004;8.266;2023-05-02T02:15:52;18.00;;;12.45;;
77220;SDS011;66217;50.004;8.266;2023-05-02T02:18:22;24.50;;;13.57;;
77220;SDS011;66217;50.004;8.266;2023-05-02T02:20:50;21.75;;;14.52;;
77220;SDS011;66217;50.004;8.266;2023-05-02T02:23:20;21.58;;;14.02;;
77220;SDS011;66217;50.004;8.266;2023-05-02T02:25:47;24.55;;;15.18;;
77220;SDS011;66217;50.004;8.266;2023-05-02T02:28:14;28.33;;;15.95;;
77220;SDS011;66217;50.004;8.266;2023-05-02T02:30:40;21.65;;;14.73;;
77220;SDS011;66217;50.004;8.266;2023-05-02T02:33:05;22.95;;;15.25;;
77220;SDS011;66217;50.004;8.266;2023-05-02T02:35:33;24.08;;;15.07;;
77220;SDS011;66217;50.004;8.266;2023-05-02T02:38:44;24.33;;;14.90;;
77220;SDS011;66217;50.004;8.266;2023-05-02T02:41:12;22.70;;;13.82;;
77220;SDS011;66217;50.004;8.266;2023-05-02T02:46:55;23.88;;;16.20;;
77220;SDS011;66217;50.004;8.266;2023-05-02T02:49:39;26.70;;;17.13;;
77220;SDS011;66217;50.004;8.266;2023-05-02T02:54:59;28.88;;;18.17;;
77220;SDS011;66217;50.004;8.266;2023-05-02T02:57:47;31.85;;;18.20;;
77220;SDS011;66217;50.004;8.266;2023-05-02T03:00:21;30.30;;;20.38;;
77220;SDS011;66217;50.004;8.266;2023-05-02T03:02:50;34.78;;;21.77;;
77220;SDS011;66217;50.004;8.266;2023-05-02T03:05:18;35.88;;;21.45;;
77220;SDS011;66217;50.004;8.266;2023-05-02T03:07:45;33.10;;;20.40;;
77220;SDS011;66217;50.004;8.266;2023-05-02T03:10:11;32.30;;;20.20;;
77220;SDS011;66217;50.004;8.266;2023-05-02T03:12:37;32.15;;;20.70;;
77220;SDS011;66217;50.004;8.266;2023-05-02T03:15:11;30.42;;;19.73;;
77220;SDS011;66217;50.004;8.266;2023-05-02T03:17:58;30.42;;;18.90;;
77220;SDS011;66217;50.004;8.266;2023-05-02T03:20:24;31.80;;;19.45;;
77220;SDS011;66217;50.004;8.266;2023-05-02T03:22:49;30.83;;;18.85;;
77220;SDS011;66217;50.004;8.266;2023-05-02T03:25:15;28.52;;;18.95;;
77220;SDS011;66217;50.004;8.266;2023-05-02T03:27:44;36.92;;;21.92;;
77220;SDS011;66217;50.004;8.266;2023-05-02T03:30:11;32.95;;;20.75;;
77220;SDS011;66217;50.004;8.266;2023-05-02T03:32:36;35.97;;;21.10;;
77220;SDS011;66217;50.004;8.266;2023-05-02T03:35:02;39.65;;;22.30;;
77220;SDS011;66217;50.004;8.266;2023-05-02T03:37:33;35.17;;;22.00;;
77220;SDS011;66217;50.004;8.266;2023-05-02T03:39:59;39.33;;;23.15;;
77220;SDS011;66217;50.004;8.266;2023-05-02T03:42:25;41.08;;;22.38;;
77220;SDS011;66217;50.004;8.266;2023-05-02T03:44:51;37.90;;;22.77;;
77220;SDS011;66217;50.004;8.266;2023-05-02T03:47:17;38.35;;;22.63;;
77220;SDS011;66217;50.004;8.266;2023-05-02T03:49:43;38.47;;;22.67;;
77220;SDS011;66217;50.004;8.266;2023-05-02T03:52:09;39.55;;;23.30;;
77220;SDS011;66217;50.004;8.266;2023-05-02T03:54:35;37.40;;;22.83;;
77220;SDS011;66217;50.004;8.266;2023-05-02T03:57:02;40.97;;;23.13;;
77220;SDS011;66217;50.004;8.266;2023-05-02T03:59:33;38.10;;;23.60;;
77220;SDS011;66217;50.004;8.266;2023-05-02T04:02:02;44.58;;;24.13;;
77220;SDS011;66217;50.004;8.266;2023-05-02T04:04:41;39.15;;;23.30;;
77220;SDS011;66217;50.004;8.266;2023-05-02T04:07:08;38.45;;;22.20;;
77220;SDS011;66217;50.004;8.266;2023-05-02T04:09:40;43.85;;;22.88;;
77220;SDS011;66217;50.004;8.266;2023-05-02T04:12:09;40.30;;;22.95;;
77220;SDS011;66217;50.004;8.266;2023-05-02T04:14:37;39.83;;;24.40;;
77220;SDS011;66217;50.004;8.266;2023-05-02T04:17:03;39.95;;;22.85;;
77220;SDS011;66217;50.004;8.266;2023-05-02T04:19:39;39.10;;;23.08;;
77220;SDS011;66217;50.004;8.266;2023-05-02T04:22:04;39.53;;;23.75;;
77220;SDS011;66217;50.004;8.266;2023-05-02T04:24:34;39.10;;;22.90;;
77220;SDS011;66217;50.004;8.266;2023-05-02T04:27:00;38.97;;;21.98;;
77220;SDS011;66217;50.004;8.266;2023-05-02T04:29:26;44.17;;;23.73;;
77220;SDS011;66217;50.004;8.266;2023-05-02T04:31:52;43.47;;;23.98;;
77220;SDS011;66217;50.004;8.266;2023-05-02T04:34:18;39.47;;;23.95;;
77220;SDS011;66217;50.004;8.266;2023-05-02T04:36:45;42.22;;;22.90;;
77220;SDS011;66217;50.004;8.266;2023-05-02T04:41:47;42.72;;;23.45;;
77220;SDS011;66217;50.004;8.266;2023-05-02T04:44:14;48.13;;;27.27;;
77220;SDS011;66217;50.004;8.266;2023-05-02T04:46:39;46.28;;;26.02;;
77220;SDS011;66217;50.004;8.266;2023-05-02T04:49:05;51.08;;;26.45;;
77220;SDS011;66217;50.004;8.266;2023-05-02T04:51:30;45.08;;;25.25;;
77220;SDS011;66217;50.004;8.266;2023-05-02T04:53:57;55.28;;;28.02;;
77220;SDS011;66217;50.004;8.266;2023-05-02T04:56:22;46.42;;;26.25;;
77220;SDS011;66217;50.004;8.266;2023-05-02T04:58:48;51.88;;;27.95;;
77220;SDS011;66217;50.004;8.266;2023-05-02T05:01:14;52.90;;;29.02;;
77220;SDS011;66217;50.004;8.266;2023-05-02T05:03:40;60.25;;;30.50;;
77220;SDS011;66217;50.004;8.266;2023-05-02T05:06:06;56.75;;;30.23;;
77220;SDS011;66217;50.004;8.266;2023-05-02T05:08:32;55.92;;;29.95;;
77220;SDS011;66217;50.004;8.266;2023-05-02T05:10:58;59.17;;;30.98;;
77220;SDS011;66217;50.004;8.266;2023-05-02T05:13:24;61.63;;;32.38;;
77220;SDS011;66217;50.004;8.266;2023-05-02T05:15:50;51.15;;;28.88;;
77220;SDS011;66217;50.004;8.266;2023-05-02T05:18:18;60.63;;;30.52;;
77220;SDS011;66217;50.004;8.266;2023-05-02T05:20:44;58.03;;;28.83;;
77220;SDS011;66217;50.004;8.266;2023-05-02T05:23:10;55.15;;;29.80;;
77220;SDS011;66217;50.004;8.266;2023-05-02T05:25:36;54.83;;;30.92;;
77220;SDS011;66217;50.004;8.266;2023-05-02T05:28:01;57.20;;;29.80;;
77220;SDS011;66217;50.004;8.266;2023-05-02T05:30:28;55.38;;;29.15;;
77220;SDS011;66217;50.004;8.266;2023-05-02T05:32:56;55.75;;;30.52;;
77220;SDS011;66217;50.004;8.266;2023-05-02T05:35:23;54.90;;;29.35;;
77220;SDS011;66217;50.004;8.266;2023-05-02T05:37:49;58.13;;;28.30;;
77220;SDS011;66217;50.004;8.266;2023-05-02T05:40:15;54.13;;;29.48;;
77220;SDS011;66217;50.004;8.266;2023-05-02T05:42:45;52.53;;;28.95;;
77220;SDS011;66217;50.004;8.266;2023-05-02T05:45:17;52.13;;;27.92;;
77220;SDS011;66217;50.004;8.266;2023-05-02T05:47:44;52.05;;;27.88;;
77220;SDS011;66217;50.004;8.266;2023-05-02T05:50:09;48.83;;;26.42;;
77220;SDS011;66217;50.004;8.266;2023-05-02T05:52:36;48.67;;;27.90;;
77220;SDS011;66217;50.004;8.266;2023-05-02T05:55:02;53.45;;;28.67;;
77220;SDS011;66217;50.004;8.266;2023-05-02T05:57:28;51.70;;;27.08;;
77220;SDS011;66217;50.004;8.266;2023-05-02T05:59:55;51.38;;;26.65;;
77220;SDS011;66217;50.004;8.266;2023-05-02T06:02:20;52.33;;;26.23;;
77220;SDS011;66217;50.004;8.266;2023-05-02T06:04:47;47.83;;;25.80;;
77220;SDS011;66217;50.004;8.266;2023-05-02T06:07:14;45.33;;;25.75;;
77220;SDS011;66217;50.004;8.266;2023-05-02T06:09:40;49.13;;;27.30;;
77220;SDS011;66217;50.004;8.266;2023-05-02T06:12:05;46.00;;;25.60;;
77220;SDS011;66217;50.004;8.266;2023-05-02T06:14:32;50.22;;;27.48;;
77220;SDS011;66217;50.004;8.266;2023-05-02T06:16:58;53.05;;;27.25;;
77220;SDS011;66217;50.004;8.266;2023-05-02T06:19:25;48.55;;;26.80;;
77220;SDS011;66217;50.004;8.266;2023-05-02T06:21:57;46.13;;;24.75;;
77220;SDS011;66217;50.004;8.266;2023-05-02T06:24:22;43.97;;;26.35;;
77220;SDS011;66217;50.004;8.266;2023-05-02T06:26:48;48.72;;;24.85;;
77220;SDS011;66217;50.004;8.266;2023-05-02T06:29:15;47.08;;;24.77;;
77220;SDS011;66217;50.004;8.266;2023-05-02T06:31:41;40.95;;;24.05;;
77220;SDS011;66217;50.004;8.266;2023-05-02T06:34:06;50.28;;;25.70;;
77220;SDS011;66217;50.004;8.266;2023-05-02T06:36:32;47.08;;;23.70;;
77220;SDS011;66217;50.004;8.266;2023-05-02T06:38:58;44.63;;;23.48;;
77220;SDS011;66217;50.004;8.266;2023-05-02T06:41:23;42.08;;;22.63;;
77220;SDS011;66217;50.004;8.266;2023-05-02T06:43:48;39.88;;;21.55;;
77220;SDS011;66217;50.004;8.266;2023-05-02T06:46:14;45.88;;;23.00;;
77220;SDS011;66217;50.004;8.266;2023-05-02T06:48:39;41.83;;;21.35;;
77220;SDS011;66217;50.004;8.266;2023-05-02T06:51:05;36.47;;;20.05;;
77220;SDS011;66217;50.004;8.266;2023-05-02T06:53:31;36.50;;;18.73;;
77220;SDS011;66217;50.004;8.266;2023-05-02T06:55:57;35.58;;;18.67;;
77220;SDS011;66217;50.004;8.266;2023-05-02T06:58:23;34.00;;;17.33;;
77220;SDS011;66217;50.004;8.266;2023-05-02T07:00:48;29.80;;;15.63;;
77220;SDS011;66217;50.004;8.266;2023-05-02T07:03:14;27.85;;;14.98;;
77220;SDS011;66217;50.004;8.266;2023-05-02T07:05:39;26.13;;;14.35;;
77220;SDS011;66217;50.004;8.266;2023-05-02T07:08:05;32.00;;;14.75;;
77220;SDS011;66217;50.004;8.266;2023-05-02T07:10:31;25.23;;;14.15;;
77220;SDS011;66217;50.004;8.266;2023-05-02T07:12:56;27.42;;;14.57;;
77220;SDS011;66217;50.004;8.266;2023-05-02T07:15:22;31.33;;;15.70;;
77220;SDS011;66217;50.004;8.266;2023-05-02T07:17:51;29.80;;;14.93;;
77220;SDS011;66217;50.004;8.266;2023-05-02T07:20:16;29.40;;;14.68;;
77220;SDS011;66217;50.004;8.266;2023-05-02T07:22:42;30.80;;;14.35;;
77220;SDS011;66217;50.004;8.266;2023-05-02T07:25:07;28.23;;;14.32;;
77220;SDS011;66217;50.004;8.266;2023-05-02T07:27:33;30.20;;;15.40;;
77220;SDS011;66217;50.004;8.266;2023-05-02T07:29:59;30.77;;;16.20;;
77220;SDS011;66217;50.004;8.266;2023-05-02T07:32:25;31.70;;;16.02;;
77220;SDS011;66217;50.004;8.266;2023-05-02T07:34:51;36.92;;;16.40;;
77220;SDS011;66217;50.004;8.266;2023-05-02T07:37:21;35.35;;;17.02;;
77220;SDS011;66217;50.004;8.266;2023-05-02T07:39:47;33.10;;;15.98;;
77220;SDS011;66217;50.004;8.266;2023-05-02T07:42:12;32.92;;;17.23;;
77220;SDS011;66217;50.004;8.266;2023-05-02T07:44:38;30.13;;;16.00;;
77220;SDS011;66217;50.004;8.266;2023-05-02T07:47:03;31.85;;;16.23;;
77220;SDS011;66217;50.004;8.266;2023-05-02T07:49:29;35.65;;;16.30;;
77220;SDS011;66217;50.004;8.266;2023-05-02T07:51:55;27.77;;;14.60;;
77220;SDS011;66217;50.004;8.266;2023-05-02T07:54:21;32.15;;;16.23;;
77220;SDS011;66217;50.004;8.266;2023-05-02T07:56:47;30.80;;;15.88;;
77220;SDS011;66217;50.004;8.266;2023-05-02T07:59:15;31.55;;;15.65;;
77220;SDS011;66217;50.004;8.266;2023-05-02T08:01:41;31.67;;;14.63;;
77220;SDS011;66217;50.004;8.266;2023-05-02T08:04:07;30.75;;;14.68;;
77220;SDS011;66217;50.004;8.266;2023-05-02T08:06:34;24.58;;;13.48;;
77220;SDS011;66217;50.004;8.266;2023-05-02T08:09:00;26.63;;;12.48;;
77220;SDS011;66217;50.004;8.266;2023-05-02T08:11:26;24.92;;;11.98;;
77220;SDS011;66217;50.004;8.266;2023-05-02T08:13:51;23.95;;;11.60;;
77220;SDS011;66217;50.004;8.266;2023-05-02T08:16:17;24.92;;;10.50;;
77220;SDS011;66217;50.004;8.266;2023-05-02T08:18:43;20.08;;;9.52;;
77220;SDS011;66217;50.004;8.266;2023-05-02T08:21:08;22.92;;;9.43;;
77220;SDS011;66217;50.004;8.266;2023-05-02T08:23:35;18.83;;;8.93;;
77220;SDS011;66217;50.004;8.266;2023-05-02T08:26:01;19.75;;;8.90;;
77220;SDS011;66217;50.004;8.266;2023-05-02T08:28:27;19.95;;;9.10;;
77220;SDS011;66217;50.004;8.266;2023-05-02T08:30:53;17.48;;;8.25;;
77220;SDS011;66217;50.004;8.266;2023-05-02T08:33:18;18.95;;;8.90;;
77220;SDS011;66217;50.004;8.266;2023-05-02T08:35:44;19.08;;;8.15;;
77220;SDS011;66217;50.004;8.266;2023-05-02T08:38:09;15.27;;;7.75;;
77220;SDS011;66217;50.004;8.266;2023-05-02T08:40:36;17.63;;;8.15;;
77220;SDS011;66217;50.004;8.266;2023-05-02T08:43:04;17.75;;;8.80;;
77220;SDS011;66217;50.004;8.266;2023-05-02T08:45:33;21.42;;;9.15;;
77220;SDS011;66217;50.004;8.266;2023-05-02T08:48:06;17.42;;;8.43;;
77220;SDS011;66217;50.004;8.266;2023-05-02T08:50:39;15.70;;;8.05;;
77220;SDS011;66217;50.004;8.266;2023-05-02T08:53:07;20.92;;;8.82;;
77220;SDS011;66217;50.004;8.266;2023-05-02T08:55:34;23.17;;;9.98;;
77220;SDS011;66217;50.004;8.266;2023-05-02T08:58:07;18.25;;;8.48;;
77220;SDS011;66217;50.004;8.266;2023-05-02T09:00:42;19.02;;;8.77;;
77220;SDS011;66217;50.004;8.266;2023-05-02T09:03:16;17.10;;;8.60;;
77220;SDS011;66217;50.004;8.266;2023-05-02T09:05:50;19.30;;;9.27;;
77220;SDS011;66217;50.004;8.266;2023-05-02T09:08:25;18.98;;;8.88;;
77220;SDS011;66217;50.004;8.266;2023-05-02T09:10:52;19.45;;;8.57;;
77220;SDS011;66217;50.004;8.266;2023-05-02T09:16:09;18.85;;;9.07;;
77220;SDS011;66217;50.004;8.266;2023-05-02T09:21:03;13.50;;;6.60;;
77220;SDS011;66217;50.004;8.266;2023-05-02T09:28:59;13.07;;;6.25;;
77220;SDS011;66217;50.004;8.266;2023-05-02T09:31:26;14.07;;;6.82;;
77220;SDS011;66217;50.004;8.266;2023-05-02T09:34:08;14.80;;;7.28;;
77220;SDS011;66217;50.004;8.266;2023-05-02T09:39:10;15.88;;;7.25;;
77220;SDS011;66217;50.004;8.266;2023-05-02T09:41:39;15.05;;;7.30;;
77220;SDS011;66217;50.004;8.266;2023-05-02T09:44:13;14.40;;;7.90;;
77220;SDS011;66217;50.004;8.266;2023-05-02T09:46:46;17.67;;;8.57;;
77220;SDS011;66217;50.004;8.266;2023-05-02T09:49:14;12.73;;;7.25;;
77220;SDS011;66217;50.004;8.266;2023-05-02T09:51:42;13.30;;;7.45;;
77220;SDS011;66217;50.004;8.266;2023-05-02T09:54:08;15.23;;;7.60;;
77220;SDS011;66217;50.004;8.266;2023-05-02T09:56:53;13.52;;;7.63;;
77220;SDS011;66217;50.004;8.266;2023-05-02T09:59:20;14.25;;;7.68;;
77220;SDS011;66217;50.004;8.266;2023-05-02T10:01:51;14.38;;;7.55;;
77220;SDS011;66217;50.004;8.266;2023-05-02T10:04:20;14.77;;;7.70;;
77220;SDS011;66217;50.004;8.266;2023-05-02T10:06:46;16.13;;;7.95;;
77220;SDS011;66217;50.004;8.266;2023-05-02T10:09:12;14.43;;;8.05;;
77220;SDS011;66217;50.004;8.266;2023-05-02T10:11:39;14.18;;;7.25;;
77220;SDS011;66217;50.004;8.266;2023-05-02T10:14:09;18.77;;;8.80;;
77220;SDS011;66217;50.004;8.266;2023-05-02T10:16:51;14.63;;;7.55;;
77220;SDS011;66217;50.004;8.266;2023-05-02T10:19:22;14.90;;;7.90;;
77220;SDS011;66217;50.004;8.266;2023-05-02T10:21:49;12.07;;;6.85;;
77220;SDS011;66217;50.004;8.266;2023-05-02T10:24:15;13.95;;;7.82;;
77220;SDS011;66217;50.004;8.266;2023-05-02T10:26:41;12.98;;;7.10;;
77220;SDS011;66217;50.004;8.266;2023-05-02T10:29:06;13.90;;;7.15;;
77220;SDS011;66217;50.004;8.266;2023-05-02T10:31:32;15.57;;;8.25;;
77220;SDS011;66217;50.004;8.266;2023-05-02T10:33:59;11.80;;;6.88;;
77220;SDS011;66217;50.004;8.266;2023-05-02T10:36:26;11.80;;;7.30;;
77220;SDS011;66217;50.004;8.266;2023-05-02T10:38:52;13.38;;;6.95;;
77220;SDS011;66217;50.004;8.266;2023-05-02T10:41:19;15.77;;;8.02;;
77220;SDS011;66217;50.004;8.266;2023-05-02T10:43:47;13.52;;;8.40;;
77220;SDS011;66217;50.004;8.266;2023-05-02T10:49:11;14.50;;;7.45;;
77220;SDS011;66217;50.004;8.266;2023-05-02T10:51:38;16.65;;;8.20;;
77220;SDS011;66217;50.004;8.266;2023-05-02T10:59:31;11.77;;;7.72;;
77220;SDS011;66217;50.004;8.266;2023-05-02T11:02:04;14.23;;;7.90;;
77220;SDS011;66217;50.004;8.266;2023-05-02T11:07:34;12.23;;;7.75;;
77220;SDS011;66217;50.004;8.266;2023-05-02T11:12:41;12.05;;;6.90;;
77220;SDS011;66217;50.004;8.266;2023-05-02T11:15:14;13.95;;;7.90;;
77220;SDS011;66217;50.004;8.266;2023-05-02T11:18:05;13.27;;;7.47;;
77220;SDS011;66217;50.004;8.266;2023-05-02T11:20:32;12.15;;;7.65;;
77220;SDS011;66217;50.004;8.266;2023-05-02T11:25:48;10.43;;;6.85;;
77220;SDS011;66217;50.004;8.266;2023-05-02T11:33:58;11.02;;;6.93;;
77220;SDS011;66217;50.004;8.266;2023-05-02T11:39:01;12.23;;;7.20;;
77220;SDS011;66217;50.004;8.266;2023-05-02T11:41:41;10.75;;;7.00;;
77220;SDS011;66217;50.004;8.266;2023-05-02T11:44:07;11.13;;;6.85;;
77220;SDS011;66217;50.004;8.266;2023-05-02T11:46:35;12.48;;;7.63;;
77220;SDS011;66217;50.004;8.266;2023-05-02T11:49:01;13.45;;;7.53;;
77220;SDS011;66217;50.004;8.266;2023-05-02T11:51:26;11.18;;;7.07;;
77220;SDS011;66217;50.004;8.266;2023-05-02T11:53:52;16.40;;;8.98;;
77220;SDS011;66217;50.004;8.266;2023-05-02T11:56:21;10.85;;;6.05;;
77220;SDS011;66217;50.004;8.266;2023-05-02T11:58:56;9.68;;;4.38;;
77220;SDS011;66217;50.004;8.266;2023-05-02T12:01:22;5.90;;;3.28;;
77220;SDS011;66217;50.004;8.266;2023-05-02T12:03:48;5.68;;;3.50;;
77220;SDS011;66217;50.004;8.266;2023-05-02T12:06:16;6.65;;;3.67;;
77220;SDS011;66217;50.004;8.266;2023-05-02T12:08:45;6.90;;;3.50;;
77220;SDS011;66217;50.004;8.266;2023-05-02T12:11:14;8.23;;;3.58;;
77220;SDS011;66217;50.004;8.266;2023-05-02T12:13:44;8.27;;;3.50;;
77220;SDS011;66217;50.004;8.266;2023-05-02T12:16:13;6.00;;;3.72;;
77220;SDS011;66217;50.004;8.266;2023-05-02T12:18:39;6.75;;;3.60;;
77220;SDS011;66217;50.004;8.266;2023-05-02T12:21:05;7.80;;;3.50;;
77220;SDS011;66217;50.004;8.266;2023-05-02T12:23:30;4.80;;;2.80;;
77220;SDS011;66217;50.004;8.266;2023-05-02T12:25:57;5.07;;;2.95;;
77220;SDS011;66217;50.004;8.266;2023-05-02T12:28:22;8.68;;;2.92;;
77220;SDS011;66217;50.004;8.266;2023-05-02T12:30:49;4.85;;;2.90;;
77220;SDS011;66217;50.004;8.266;2023-05-02T12:33:16;5.03;;;2.70;;
77220;SDS011;66217;50.004;8.266;2023-05-02T12:35:42;4.45;;;2.53;;
77220;SDS011;66217;50.004;8.266;2023-05-02T12:38:17;5.13;;;2.70;;
77220;SDS011;66217;50.004;8.266;2023-05-02T12:40:53;10.55;;;3.85;;
77220;SDS011;66217;50.004;8.266;2023-05-02T12:43:22;4.47;;;2.72;;
77220;SDS011;66217;50.004;8.266;2023-05-02T12:45:48;7.35;;;2.45;;
77220;SDS011;66217;50.004;8.266;2023-05-02T12:48:17;3.55;;;2.50;;
77220;SDS011;66217;50.004;8.266;2023-05-02T12:50:52;3.67;;;2.30;;
77220;SDS011;66217;50.004;8.266;2023-05-02T12:56:07;8.82;;;2.28;;
77220;SDS011;66217;50.004;8.266;2023-05-02T12:58:45;6.10;;;2.60;;
77220;SDS011;66217;50.004;8.266;2023-05-02T13:01:14;5.90;;;2.53;;
77220;SDS011;66217;50.004;8.266;2023-05-02T13:03:40;9.70;;;3.22;;
77220;SDS011;66217;50.004;8.266;2023-05-02T13:06:07;5.57;;;3.15;;
77220;SDS011;66217;50.004;8.266;2023-05-02T13:08:33;10.50;;;2.70;;
77220;SDS011;66217;50.004;8.266;2023-05-02T13:11:00;6.40;;;3.10;;
77220;SDS011;66217;50.004;8.266;2023-05-02T13:13:27;6.05;;;2.85;;
77220;SDS011;66217;50.004;8.266;2023-05-02T13:15:53;4.88;;;3.30;;
77220;SDS011;66217;50.004;8.266;2023-05-02T13:18:18;5.22;;;3.20;;
77220;SDS011;66217;50.004;8.266;2023-05-02T13:20:44;7.13;;;3.90;;
77220;SDS011;66217;50.004;8.266;2023-05-02T13:23:09;7.10;;;4.10;;
77220;SDS011;66217;50.004;8.266;2023-05-02T13:25:35;8.15;;;4.75;;
77220;SDS011;66217;50.004;8.266;2023-05-02T13:28:00;11.90;;;4.97;;
77220;SDS011;66217;50.004;8.266;2023-05-02T13:30:26;6.13;;;4.35;;
77220;SDS011;66217;50.004;8.266;2023-05-02T13:32:51;10.05;;;4.68;;
77220;SDS011;66217;50.004;8.266;2023-05-02T13:35:17;10.07;;;5.20;;
77220;SDS011;66217;50.004;8.266;2023-05-02T13:37:42;13.02;;;4.93;;
77220;SDS011;66217;50.004;8.266;2023-05-02T13:40:08;8.73;;;5.18;;
77220;SDS011;66217;50.004;8.266;2023-05-02T13:42:34;7.05;;;5.20;;
77220;SDS011;66217;50.004;8.266;2023-05-02T13:44:59;8.63;;;4.82;;
77220;SDS011;66217;50.004;8.266;2023-05-02T13:47:28;12.82;;;5.00;;
77220;SDS011;66217;50.004;8.266;2023-05-02T13:49:53;10.98;;;5.35;;
77220;SDS011;66217;50.004;8.266;2023-05-02T13:52:20;10.82;;;5.20;;
77220;SDS011;66217;50.004;8.266;2023-05-02T13:54:45;11.02;;;5.25;;
77220;SDS011;66217;50.004;8.266;2023-05-02T13:57:10;7.72;;;4.68;;
77220;SDS011;66217;50.004;8.266;2023-05-02T13:59:36;17.38;;;8.18;;
77220;SDS011;66217;50.004;8.266;2023-05-02T14:02:02;8.27;;;4.30;;
77220;SDS011;66217;50.004;8.266;2023-05-02T14:04:27;9.68;;;4.55;;
77220;SDS011;66217;50.004;8.266;2023-05-02T14:06:52;7.38;;;5.00;;
77220;SDS011;66217;50.004;8.266;2023-05-02T14:09:18;7.93;;;4.90;;
77220;SDS011;66217;50.004;8.266;2023-05-02T14:11:44;6.50;;;4.45;;
77220;SDS011;66217;50.004;8.266;2023-05-02T14:14:11;8.20;;;4.47;;
77220;SDS011;66217;50.004;8.266;2023-05-02T14:16:37;7.38;;;4.43;;
77220;SDS011;66217;50.004;8.266;2023-05-02T14:19:03;8.65;;;4.63;;
77220;SDS011;66217;50.004;8.266;2023-05-02T14:21:29;8.38;;;4.68;;
77220;SDS011;66217;50.004;8.266;2023-05-02T14:23:54;7.07;;;4.03;;
77220;SDS011;66217;50.004;8.266;2023-05-02T14:26:20;7.03;;;4.13;;
77220;SDS011;66217;50.004;8.266;2023-05-02T14:28:45;8.90;;;3.97;;
77220;SDS011;66217;50.004;8.266;2023-05-02T14:31:11;7.00;;;3.53;;
77220;SDS011;66217;50.004;8.266;2023-05-02T14:33:36;7.72;;;4.15;;
77220;SDS011;66217;50.004;8.266;2023-05-02T14:36:02;9.50;;;4.55;;
77220;SDS011;66217;50.004;8.266;2023-05-02T14:38:28;12.05;;;4.32;;
77220;SDS011;66217;50.004;8.266;2023-05-02T14:40:53;8.05;;;4.20;;
77220;SDS011;66217;50.004;8.266;2023-05-02T14:43:19;6.57;;;3.90;;
77220;SDS011;66217;50.004;8.266;2023-05-02T14:45:44;7.50;;;3.78;;
77220;SDS011;66217;50.004;8.266;2023-05-02T14:48:10;10.02;;;4.68;;
77220;SDS011;66217;50.004;8.266;2023-05-02T14:50:38;11.27;;;4.20;;
77220;SDS011;66217;50.004;8.266;2023-05-02T14:53:04;8.18;;;4.45;;
77220;SDS011;66217;50.004;8.266;2023-05-02T14:55:34;6.65;;;4.07;;
77220;SDS011;66217;50.004;8.266;2023-05-02T14:58:07;5.88;;;4.05;;
77220;SDS011;66217;50.004;8.266;2023-05-02T15:00:36;6.43;;;4.13;;
77220;SDS011;66217;50.004;8.266;2023-05-02T15:03:03;5.60;;;3.95;;
77220;SDS011;66217;50.004;8.266;2023-05-02T15:05:29;6.15;;;3.83;;
77220;SDS011;66217;50.004;8.266;2023-05-02T15:07:54;9.45;;;4.53;;
77220;SDS011;66217;50.004;8.266;2023-05-02T15:10:20;9.88;;;4.22;;
77220;SDS011;66217;50.004;8.266;2023-05-02T15:12:45;7.70;;;4.47;;
77220;SDS011;66217;50.004;8.266;2023-05-02T15:15:14;5.75;;;3.80;;
77220;SDS011;66217;50.004;8.266;2023-05-02T15:17:41;6.47;;;3.47;;
77220;SDS011;66217;50.004;8.266;2023-05-02T15:20:09;6.10;;;3.60;;
77220;SDS011;66217;50.004;8.266;2023-05-02T15:22:35;5.10;;;3.50;;
77220;SDS011;66217;50.004;8.266;2023-05-02T15:25:01;4.95;;;3.05;;
77220;SDS011;66217;50.004;8.266;2023-05-02T15:27:26;7.43;;;3.22;;
77220;SDS011;66217;50.004;8.266;2023-05-02T15:29:52;7.63;;;3.50;;
77220;SDS011;66217;50.004;8.266;2023-05-02T15:32:17;6.55;;;3.08;;
77220;SDS011;66217;50.004;8.266;2023-05-02T15:34:43;4.18;;;2.50;;